Time;durP1;ratioP1;P1;durP2;ratioP2;P2;SDS_P1;SDS_P2;PMS_P1;PMS_P2;Temp;Humidity;BMP_temperature;BMP_pressure;BME280_temperature;BME280_humidity;BME280_pressure;Samples;Min_cycle;Max_cycle;Signal;HPM_P1;HPM_P2
2022/02/22 05:40:52;;;;;;;46.83;27.87;;;;;;;3.95;100.00;99130.97;1712895;82;21407;-39
2022/02/22 05:43:19;;;;;;;44.77;28.12;;;;;;;3.97;100.00;99130.97;1728318;82;21675;-45
2022/02/22 05:45:46;;;;;;;36.75;24.02;;;;;;;3.96;100.00;99135.71;1728724;82;21054;-40
2022/02/22 05:48:12;;;;;;;46.15;28.25;;;;;;;3.97;100.00;99136.14;1740812;80;21088;-40
2022/02/22 05:50:40;;;;;;;40.33;25.20;;;;;;;3.99;100.00;99137.88;1736781;80;21062;-46
2022/02/22 05:53:07;;;;;;;46.68;24.65;;;;;;;4.02;100.00;99142.23;1746057;80;21044;-39
2022/02/22 05:55:33;;;;;;;42.23;26.62;;;;;;;4.05;100.00;99139.65;1733731;82;21671;-46
2022/02/22 05:58:00;;;;;;;42.60;24.47;;;;;;;4.07;100.00;99134.51;1721104;82;21439;-46
2022/02/22 06:00:26;;;;;;;43.50;26.07;;;;;;;4.10;100.00;99137.97;1731238;80;21055;-46
2022/02/22 06:02:53;;;;;;;37.80;22.62;;;;;;;4.14;100.00;99133.27;1733284;82;21060;-46
2022/02/22 06:05:21;;;;;;;38.85;25.50;;;;;;;4.20;100.00;99125.53;1733186;81;21086;-46
2022/02/22 06:07:50;;;;;;;43.23;25.68;;;;;;;4.23;100.00;99125.97;1715116;82;20994;-39
2022/02/22 06:10:17;;;;;;;41.98;24.52;;;;;;;4.26;100.00;99129.89;1730405;80;21036;-38
2022/02/22 06:12:48;;;;;;;41.83;27.13;;;;;;;4.27;100.00;99131.62;1736412;80;21413;-39
2022/02/22 06:15:15;;;;;;;35.58;23.57;;;;;;;4.30;100.00;99127.77;1721941;81;21871;-39
2022/02/22 06:17:45;;;;;;;32.70;21.68;;;;;;;4.34;100.00;99124.32;1732451;82;21046;-46
2022/02/22 06:20:55;;;;;;;46.10;23.87;;;;;;;4.37;100.00;99124.36;1719254;81;21135;-45
2022/02/22 06:25:13;;;;;;;35.10;22.05;;;;;;;4.40;100.00;99125.65;1737231;80;21113;-46
2022/02/22 06:41:20;;;;;;;38.65;22.48;;;;;;;4.49;100.00;99140.40;1733068;81;21619;-39
2022/02/22 06:48:22;;;;;;;38.10;21.80;;;;;;;4.39;100.00;99146.37;1718042;83;21002;-46
2022/02/22 06:51:15;;;;;;;39.88;22.42;;;;;;;4.37;100.00;99151.98;1714900;81;21423;-46
2022/02/22 06:54:27;;;;;;;41.08;22.52;;;;;;;4.37;100.00;99146.80;1720419;80;21610;-46
2022/02/22 06:57:52;;;;;;;38.63;21.37;;;;;;;4.39;100.00;99147.23;1671777;83;21026;-37
2022/02/22 07:00:50;;;;;;;37.25;21.90;;;;;;;4.46;100.00;99152.02;1716127;81;21649;-45
2022/02/22 07:04:16;;;;;;;40.23;21.87;;;;;;;4.51;100.00;99155.08;1681485;83;21078;-38
2022/02/22 07:07:46;;;;;;;26.02;17.35;;;;;;;4.55;100.00;99153.38;1710977;82;21061;-46
2022/02/22 07:19:40;;;;;;;43.00;26.23;;;;;;;4.63;100.00;99170.26;1733592;81;21454;-45
2022/02/22 07:23:26;;;;;;;35.92;22.32;;;;;;;4.64;100.00;99177.17;1734339;80;21416;-45
2022/02/22 07:26:30;;;;;;;33.88;19.15;;;;;;;4.64;100.00;99180.66;1732991;82;21434;-38
2022/02/22 07:30:10;;;;;;;32.75;19.87;;;;;;;4.67;100.00;99192.75;1700857;81;21132;-44
2022/02/22 07:32:53;;;;;;;24.52;16.23;;;;;;;4.71;100.00;99193.22;1713757;80;21076;-45
2022/02/22 07:36:12;;;;;;;23.05;15.20;;;;;;;4.72;100.00;99201.42;1730976;82;21124;-45
2022/02/22 07:38:47;;;;;;;20.82;13.08;;;;;;;4.75;100.00;99205.31;1724605;81;21053;-45
2022/02/22 07:41:22;;;;;;;22.65;13.85;;;;;;;4.79;100.00;99211.82;1728924;81;21071;-45
2022/02/22 07:43:43;;;;;;;20.95;14.35;;;;;;;4.82;100.00;99214.88;1720818;82;21009;-45
2022/02/22 07:46:10;;;;;;;22.07;13.70;;;;;;;4.84;100.00;99213.58;1723008;82;21548;-46
2022/02/22 07:48:38;;;;;;;18.57;11.22;;;;;;;4.86;100.00;99220.50;1725869;82;21664;-45
2022/02/22 07:51:05;;;;;;;18.92;10.88;;;;;;;4.90;100.00;99225.28;1731706;80;21506;-45
2022/02/22 07:53:37;;;;;;;20.97;11.85;;;;;;;4.92;100.00;99218.37;1729220;81;20986;-45
2022/02/22 07:57:05;;;;;;;16.85;10.63;;;;;;;4.96;100.00;99226.61;1727180;81;21333;-38
2022/02/22 07:59:32;;;;;;;17.45;10.63;;;;;;;4.99;100.00;99227.94;1711868;82;21049;-45
2022/02/22 08:02:57;;;;;;;17.10;11.22;;;;;;;5.05;100.00;99226.67;1667920;84;21474;-45
2022/02/22 08:05:42;;;;;;;20.65;12.20;;;;;;;5.09;100.00;99232.29;1679098;85;21071;-46
2022/02/22 08:08:09;;;;;;;24.35;13.05;;;;;;;5.12;100.00;99238.80;1681663;84;21001;-46
2022/02/22 08:11:20;;;;;;;24.45;12.88;;;;;;;5.14;100.00;99242.26;1682044;85;21032;-39
2022/02/22 08:22:59;;;;;;;21.10;11.28;;;;;;;5.15;100.00;99252.20;1670251;84;21024;-44
2022/02/22 08:26:57;;;;;;;18.50;12.20;;;;;;;5.12;100.00;99249.17;1699778;82;20992;-45
2022/02/22 08:29:48;;;;;;;18.82;11.08;;;;;;;5.08;100.00;99262.97;1680213;83;21370;-46
2022/02/22 08:32:21;;;;;;;21.07;11.50;;;;;;;5.07;100.00;99268.59;1680574;83;21551;-46
2022/02/22 08:34:48;;;;;;;19.15;12.18;;;;;;;5.07;100.00;99265.12;1684855;83;21104;-46
2022/02/22 08:37:15;;;;;;;19.05;13.18;;;;;;;5.07;100.00;99271.61;1685509;85;20985;-46
2022/02/22 08:39:42;;;;;;;21.52;12.30;;;;;;;5.07;100.00;99269.88;1661951;84;21597;-46
2022/02/22 08:42:11;;;;;;;18.95;13.05;;;;;;;5.13;100.00;99268.19;1669246;84;21587;-39
2022/02/22 08:44:38;;;;;;;21.77;12.35;;;;;;;5.20;100.00;99274.70;1645999;84;21053;-39
2022/02/22 08:47:06;;;;;;;19.00;11.30;;;;;;;5.24;100.00;99279.05;1677527;84;20974;-39
2022/02/22 08:49:33;;;;;;;19.65;11.83;;;;;;;5.24;99.93;99280.78;1675148;85;21033;-39
2022/02/22 08:52:00;;;;;;;20.43;12.58;;;;;;;5.22;99.43;99274.73;1666539;84;21453;-40
2022/02/22 08:54:27;;;;;;;19.17;12.58;;;;;;;5.22;99.59;99277.33;1666153;85;21096;-39
2022/02/22 08:56:53;;;;;;;18.23;12.88;;;;;;;5.23;99.75;99269.55;1662714;85;21577;-46
2022/02/22 08:59:20;;;;;;;23.05;13.85;;;;;;;5.25;99.84;99272.14;1646010;84;21100;-46
2022/02/22 09:01:47;;;;;;;19.27;12.05;;;;;;;5.26;99.69;99273.44;1666197;85;20975;-46
2022/02/22 09:04:13;;;;;;;20.75;13.10;;;;;;;5.28;99.90;99277.36;1667738;85;21101;-39
2022/02/22 09:06:41;;;;;;;19.25;13.03;;;;;;;5.29;99.77;99276.06;1667031;85;21022;-46
2022/02/22 09:09:07;;;;;;;20.35;13.70;;;;;;;5.31;99.71;99283.84;1665252;84;21461;-45
2022/02/22 09:15:53;;;;;;;22.82;13.22;;;;;;;5.36;99.04;99286.03;1719486;82;20993;-45
2022/02/22 09:26:15;;;;;;;20.55;13.25;;;;;;;5.39;98.51;99281.27;1718385;82;20139;-45
2022/02/22 09:33:40;;;;;;;21.33;14.90;;;;;;;5.46;98.11;99281.77;1719445;81;22506;-45
2022/02/22 09:40:41;;;;;;;22.55;15.48;;;;;;;5.54;96.79;99285.25;1720151;81;20981;-45
2022/02/22 09:43:07;;;;;;;22.87;13.80;;;;;;;5.53;96.74;99280.92;1731479;80;21006;-45
2022/02/22 09:45:34;;;;;;;24.75;14.93;;;;;;;5.56;97.02;99280.92;1706611;82;20945;-46
2022/02/22 09:48:04;;;;;;;21.02;14.85;;;;;;;5.61;96.75;99283.97;1730995;80;21045;-46
2022/02/22 09:50:32;;;;;;;24.27;13.90;;;;;;;5.63;96.27;99278.81;1736407;82;20999;-45
2022/02/22 09:52:59;;;;;;;19.32;13.25;;;;;;;5.67;96.29;99282.27;1725905;82;21036;-45
2022/02/22 09:55:26;;;;;;;22.95;14.05;;;;;;;5.71;95.84;99283.58;1704086;82;20991;-45
2022/02/22 09:57:53;;;;;;;20.10;14.63;;;;;;;5.75;95.50;99275.39;1725949;82;21021;-46
2022/02/22 10:00:24;;;;;;;22.90;13.88;;;;;;;5.79;95.44;99279.27;1729855;81;21020;-45
2022/02/22 10:03:02;;;;;;;19.57;13.08;;;;;;;5.82;94.97;99284.48;1708803;83;21013;-46
2022/02/22 10:05:29;;;;;;;22.15;14.58;;;;;;;5.83;95.01;99281.02;1720461;82;20997;-45
2022/02/22 10:08:02;;;;;;;25.00;16.77;;;;;;;5.85;94.41;99283.18;1731509;82;21956;-38
2022/02/22 10:18:16;;;;;;;24.32;15.98;;;;;;;5.92;93.75;99281.53;1733729;81;21022;-38
2022/02/22 10:24:12;;;;;;;25.30;16.17;;;;;;;6.04;93.55;99281.98;1720479;81;21535;-38
2022/02/22 10:27:05;;;;;;;24.43;15.13;;;;;;;6.15;93.22;99277.69;1733398;80;20987;-38
2022/02/22 10:29:50;;;;;;;23.25;14.95;;;;;;;6.24;92.85;99278.98;1734779;80;21034;-38
2022/02/22 10:32:17;;;;;;;27.90;17.00;;;;;;;6.37;92.42;99282.02;1733196;82;20993;-45
2022/02/22 10:34:50;;;;;;;22.85;15.68;;;;;;;6.47;91.95;99280.73;1730055;80;21917;-45
2022/02/22 10:37:17;;;;;;;21.87;14.85;;;;;;;6.55;91.76;99275.98;1731462;80;21598;-46
2022/02/22 10:40:33;;;;;;;23.07;14.73;;;;;;;6.58;91.39;99278.57;1719945;80;21088;-44
2022/02/22 10:44:02;;;;;;;27.55;16.05;;;;;;;6.68;91.27;99282.05;1738099;80;21076;-38
2022/02/22 10:47:00;;;;;;;24.30;15.48;;;;;;;6.80;90.39;99285.94;1708518;82;21293;-39
2022/02/22 10:49:48;;;;;;;24.80;16.73;;;;;;;6.89;89.67;99282.44;1735447;80;21698;-37
2022/02/22 10:52:19;;;;;;;26.55;17.05;;;;;;;6.93;89.00;99284.18;1686425;80;21392;-38
2022/02/22 10:54:51;;;;;;;31.35;20.00;;;;;;;6.96;87.74;99283.30;1739512;80;21596;-47
2022/02/22 10:57:54;;;;;;;;;;;;;;;6.92;86.92;99285.92;1719479;81;21025;-44
2022/02/22 11:01:08;;;;;;;27.02;16.02;;;;;;;6.90;87.36;99277.27;1741221;81;20111;-39
2022/02/22 11:07:54;;;;;;;31.93;19.45;;;;;;;6.99;87.29;99275.50;1736140;80;21005;-45
2022/02/22 11:19:34;;;;;;;26.42;16.93;;;;;;;7.14;86.71;99276.78;1735000;80;21698;-38
2022/02/22 11:23:09;;;;;;;25.68;16.17;;;;;;;7.23;86.38;99274.14;1732285;80;21467;-46
2022/02/22 11:26:30;;;;;;;26.62;15.80;;;;;;;7.26;85.18;99268.08;1730586;80;20938;-46
2022/02/22 11:33:04;;;;;;;24.10;15.58;;;;;;;7.18;84.49;99268.95;1719484;81;21021;-50
2022/02/22 11:36:05;;;;;;;28.32;16.75;;;;;;;7.18;85.02;99275.89;1720013;80;20988;-46
2022/02/22 11:38:44;;;;;;;23.67;15.43;;;;;;;7.17;85.20;99270.26;1737519;80;21315;-46
2022/02/22 11:41:19;;;;;;;25.43;16.40;;;;;;;7.17;85.60;99272.42;1732492;81;21009;-44
2022/02/22 11:43:59;;;;;;;31.70;20.55;;;;;;;7.24;86.02;99284.97;1733702;81;21428;-37
2022/02/22 11:46:52;;;;;;;38.20;21.73;;;;;;;7.29;85.58;99287.57;1738368;80;20957;-37
2022/02/22 11:49:31;;;;;;;33.55;19.42;;;;;;;7.30;85.30;99286.25;1738049;80;21064;-38
2022/02/22 11:52:09;;;;;;;33.33;19.90;;;;;;;7.32;84.59;99282.38;1731251;81;21639;-45
2022/02/22 11:54:43;;;;;;;35.13;20.40;;;;;;;7.35;84.56;99272.80;1732833;82;20993;-45
2022/02/22 11:57:22;;;;;;;37.98;20.65;;;;;;;7.46;84.74;99281.44;1732178;80;21370;-45
2022/02/22 12:00:03;;;;;;;34.50;21.17;;;;;;;7.56;83.74;99279.68;1715994;82;21034;-43
2022/02/22 12:02:41;;;;;;;34.45;19.67;;;;;;;7.56;82.65;99278.38;1713619;82;21024;-38
2022/02/22 12:05:25;;;;;;;37.58;22.20;;;;;;;7.61;82.73;99280.97;1725529;82;21094;-38
2022/02/22 12:08:21;;;;;;;31.87;20.20;;;;;;;7.66;82.55;99278.78;1729457;81;20969;-41
2022/02/22 12:10:59;;;;;;;34.60;20.80;;;;;;;7.69;81.91;99282.66;1738758;81;21001;-38
2022/02/22 12:13:29;;;;;;;40.17;23.35;;;;;;;7.69;81.74;99282.66;1730652;80;21091;-38
2022/02/22 12:16:18;;;;;;;39.85;24.47;;;;;;;7.72;81.64;99281.79;1678944;83;21434;-38
2022/02/22 12:18:52;;;;;;;35.25;21.33;;;;;;;7.68;81.08;99280.06;1665626;84;21114;-39
2022/02/22 12:21:23;;;;;;;36.95;22.20;;;;;;;7.63;81.65;99284.42;1744029;82;21457;-46
2022/02/22 12:23:50;;;;;;;33.40;20.35;;;;;;;7.61;81.77;99284.44;1728370;82;21967;-46
2022/02/22 12:26:43;;;;;;;37.67;22.02;;;;;;;7.65;81.92;99291.37;1731425;82;21446;-45
2022/02/22 12:29:16;;;;;;;31.40;19.57;;;;;;;7.65;81.65;99289.17;1737636;80;21095;-46
2022/02/22 12:31:54;;;;;;;32.93;20.30;;;;;;;7.64;81.77;99290.91;1690155;82;21028;-39
2022/02/22 12:34:19;;;;;;;34.60;20.50;;;;;;;7.65;81.63;99295.68;1734511;81;21530;-46
2022/02/22 12:37:01;;;;;;;33.63;19.85;;;;;;;7.61;81.48;99300.49;1731717;82;21571;-44
2022/02/22 12:39:29;;;;;;;35.03;21.82;;;;;;;7.57;81.43;99302.23;1736164;80;21062;-43
2022/02/22 12:41:57;;;;;;;39.83;22.37;;;;;;;7.57;81.57;99297.02;1701211;82;21037;-45
2022/02/22 12:44:25;;;;;;;46.13;24.87;;;;;;;7.59;81.74;99304.81;1719395;81;21034;-44
2022/02/22 12:46:54;;;;;;;45.65;27.32;;;;;;;7.62;81.56;99307.42;1710652;83;21008;-44
2022/02/22 12:49:22;;;;;;;45.38;25.48;;;;;;;7.64;81.37;99309.58;1706549;81;21485;-45
2022/02/22 12:51:53;;;;;;;51.98;28.17;;;;;;;7.66;80.81;99315.22;1694566;82;21036;-45
2022/02/22 12:54:20;;;;;;;54.63;25.48;;;;;;;7.66;80.69;99313.92;1720644;82;21418;-44
2022/02/22 12:56:56;;;;;;;46.23;24.43;;;;;;;7.65;80.44;99314.80;1712240;83;21004;-39
2022/02/22 12:59:33;;;;;;;43.02;22.45;;;;;;;7.64;80.11;99321.29;1724070;80;21392;-36
2022/02/22 13:05:56;;;;;;;42.20;24.10;;;;;;;7.65;80.48;99312.60;1708042;82;21144;-44
2022/02/22 13:09:12;;;;;;;39.85;23.73;;;;;;;7.69;80.66;99314.33;1713647;80;21128;-44
2022/02/22 13:17:00;;;;;;;43.33;23.95;;;;;;;7.72;80.27;99311.73;1718646;82;20965;-38
2022/02/22 13:20:05;;;;;;;58.02;27.77;;;;;;;7.65;80.64;99310.00;1721678;81;21053;-37
2022/02/22 13:22:45;;;;;;;43.50;23.05;;;;;;;7.63;81.22;99296.13;1705382;83;20941;-38
2022/02/22 13:25:18;;;;;;;45.50;25.43;;;;;;;7.67;81.06;99295.26;1698885;82;21117;-38
2022/02/22 13:27:51;;;;;;;45.23;26.80;;;;;;;7.72;80.92;99294.37;1701477;83;21398;-38
2022/02/22 13:30:22;;;;;;;49.93;26.30;;;;;;;7.74;80.69;99296.95;1717206;82;21067;-44
2022/02/22 13:32:51;;;;;;;52.60;28.52;;;;;;;7.76;80.22;99292.59;1714920;82;21524;-44
2022/02/22 13:35:23;;;;;;;49.88;27.42;;;;;;;7.77;80.35;99292.16;1710715;82;21639;-44
2022/02/22 13:37:50;;;;;;;45.33;26.30;;;;;;;7.80;80.26;99295.62;1704911;83;20957;-38
2022/02/22 13:40:19;;;;;;;44.05;25.15;;;;;;;7.84;79.99;99290.84;1664259;83;21178;-39
2022/02/22 13:42:49;;;;;;;56.40;30.02;;;;;;;7.88;79.53;99294.27;1708229;82;20952;-38
2022/02/22 13:45:16;;;;;;;47.60;26.70;;;;;;;7.90;79.26;99291.25;1733149;82;21054;-45
2022/02/22 13:47:43;;;;;;;49.83;27.90;;;;;;;7.95;79.27;99298.16;1736557;80;21587;-44
2022/02/22 13:50:19;;;;;;;42.35;25.82;;;;;;;8.00;79.00;99295.11;1715592;82;21032;-44
2022/02/22 13:53:02;;;;;;;42.10;25.55;;;;;;;8.04;78.77;99301.14;1728023;82;20951;-44
2022/02/22 13:55:32;;;;;;;43.68;27.17;;;;;;;8.05;78.55;99296.80;1749796;80;20974;-44
2022/02/22 13:58:05;;;;;;;42.53;22.98;;;;;;;8.05;78.70;99298.09;1734414;82;20963;-44
2022/02/22 14:00:45;;;;;;;36.45;23.38;;;;;;;8.07;78.76;99299.84;1740264;82;21442;-44
2022/02/22 14:03:12;;;;;;;45.30;27.73;;;;;;;8.10;78.69;99311.52;1721469;82;21308;-43
2022/02/22 14:05:39;;;;;;;50.23;30.27;;;;;;;8.14;78.81;99304.13;1733931;82;20991;-44
2022/02/22 14:08:11;;;;;;;48.42;29.05;;;;;;;8.19;78.84;99310.62;1733919;82;21496;-37
2022/02/22 14:10:35;;;;;;;44.85;25.75;;;;;;;8.27;78.73;99299.70;1734309;82;21309;-37
2022/02/22 14:13:02;;;;;;;39.63;23.32;;;;;;;8.34;78.26;99304.44;1741278;81;20992;-44
2022/02/22 14:15:29;;;;;;;39.58;23.80;;;;;;;8.31;77.82;99304.47;1717394;82;21009;-38
2022/02/22 14:17:55;;;;;;;46.95;27.30;;;;;;;8.27;77.78;99310.13;1714945;82;21900;-38
2022/02/22 14:20:22;;;;;;;41.68;26.27;;;;;;;8.22;77.84;99311.45;1740178;82;21049;-37
